sensor_id;sensor_type;location;lat;lon;timestamp;pressure;altitude;pressure_sealevel;temperature;humidity
29163;BME280;20331;53.144;8.208;2024-01-07T00:02:14;102015.88;;;1.24;100.00
29163;BME280;20331;53.144;8.208;2024-01-07T00:07:35;102025.94;;;1.19;100.00
29163;BME280;20331;53.144;8.208;2024-01-07T00:12:57;102028.38;;;1.15;100.00
29163;BME280;20331;53.144;8.208;2024-01-07T00:18:19;102039.38;;;1.14;100.00
29163;BME280;20331;53.144;8.208;2024-01-07T00:23:41;102038.50;;;1.12;100.00
29163;BME280;20331;53.144;8.208;2024-01-07T00:29:03;102035.88;;;1.10;100.00
29163;BME280;20331;53.144;8.208;2024-01-07T00:34:24;102034.13;;;1.08;100.00
29163;BME280;20331;53.144;8.208;2024-01-07T00:39:46;102037.41;;;1.03;100.00
29163;BME280;20331;53.144;8.208;2024-01-07T00:45:08;102039.13;;;1.04;100.00
29163;BME280;20331;53.144;8.208;2024-01-07T00:50:30;102046.03;;;1.09;100.00
29163;BME280;20331;53.144;8.208;2024-01-07T00:55:52;102060.25;;;1.00;100.00
29163;BME280;20331;53.144;8.208;2024-01-07T01:01:13;102064.06;;;0.86;99.96
29163;BME280;20331;53.144;8.208;2024-01-07T01:06:35;102070.28;;;0.94;100.00
29163;BME280;20331;53.144;8.208;2024-01-07T01:11:57;102077.88;;;0.93;100.00
29163;BME280;20331;53.144;8.208;2024-01-07T01:17:18;102086.19;;;0.87;99.99
29163;BME280;20331;53.144;8.208;2024-01-07T01:22:40;102097.19;;;0.86;100.00
29163;BME280;20331;53.144;8.208;2024-01-07T01:28:02;102090.28;;;0.82;100.00
29163;BME280;20331;53.144;8.208;2024-01-07T01:33:25;102108.75;;;0.75;100.00
29163;BME280;20331;53.144;8.208;2024-01-07T01:38:47;102114.47;;;0.68;100.00
29163;BME280;20331;53.144;8.208;2024-01-07T01:44:10;102125.66;;;0.73;100.00
29163;BME280;20331;53.144;8.208;2024-01-07T01:49:31;102130.88;;;0.76;100.00
29163;BME280;20331;53.144;8.208;2024-01-07T01:54:54;102135.84;;;0.73;99.58
29163;BME280;20331;53.144;8.208;2024-01-07T02:00:16;102150.41;;;0.77;98.92
29163;BME280;20331;53.144;8.208;2024-01-07T02:05:38;102149.69;;;0.81;98.79
29163;BME280;20331;53.144;8.208;2024-01-07T02:11:20;102146.13;;;0.76;98.62
29163;BME280;20331;53.144;8.208;2024-01-07T02:16:41;102173.53;;;0.83;97.90
29163;BME280;20331;53.144;8.208;2024-01-07T02:22:03;102167.19;;;0.71;96.50
29163;BME280;20331;53.144;8.208;2024-01-07T02:27:25;102181.59;;;0.70;96.40
29163;BME280;20331;53.144;8.208;2024-01-07T02:32:47;102180.06;;;0.75;97.82
29163;BME280;20331;53.144;8.208;2024-01-07T02:38:09;102194.41;;;0.73;96.27
29163;BME280;20331;53.144;8.208;2024-01-07T02:43:31;102194.03;;;0.61;95.46
29163;BME280;20331;53.144;8.208;2024-01-07T02:48:52;102200.66;;;0.56;96.36
29163;BME280;20331;53.144;8.208;2024-01-07T02:54:15;102208.34;;;0.58;96.40
29163;BME280;20331;53.144;8.208;2024-01-07T02:59:36;102209.47;;;0.66;96.66
29163;BME280;20331;53.144;8.208;2024-01-07T03:04:58;102212.25;;;0.73;99.30
29163;BME280;20331;53.144;8.208;2024-01-07T03:10:20;102208.81;;;0.71;98.43
29163;BME280;20331;53.144;8.208;2024-01-07T03:15:41;102220.72;;;0.72;99.17
29163;BME280;20331;53.144;8.208;2024-01-07T03:21:03;102220.78;;;0.75;99.92
29163;BME280;20331;53.144;8.208;2024-01-07T03:26:29;102229.19;;;0.71;98.04
29163;BME280;20331;53.144;8.208;2024-01-07T03:31:51;102239.38;;;0.71;97.74
29163;BME280;20331;53.144;8.208;2024-01-07T03:37:14;102240.25;;;0.73;96.68
29163;BME280;20331;53.144;8.208;2024-01-07T03:42:36;102239.38;;;0.71;95.87
29163;BME280;20331;53.144;8.208;2024-01-07T03:47:57;102244.47;;;0.71;95.26
29163;BME280;20331;53.144;8.208;2024-01-07T03:53:19;102248.94;;;0.78;94.95
29163;BME280;20331;53.144;8.208;2024-01-07T03:58:41;102256.72;;;0.83;95.46
29163;BME280;20331;53.144;8.208;2024-01-07T04:04:02;102261.66;;;0.78;94.25
29163;BME280;20331;53.144;8.208;2024-01-07T04:09:24;102267.59;;;0.79;92.24
29163;BME280;20331;53.144;8.208;2024-01-07T04:14:46;102277.91;;;0.82;93.88
29163;BME280;20331;53.144;8.208;2024-01-07T04:20:08;102282.88;;;0.79;91.58
29163;BME280;20331;53.144;8.208;2024-01-07T04:25:30;102288.94;;;0.82;92.55
29163;BME280;20331;53.144;8.208;2024-01-07T04:30:51;102302.28;;;0.75;91.15
29163;BME280;20331;53.144;8.208;2024-01-07T04:36:13;102309.03;;;0.73;91.24
29163;BME280;20331;53.144;8.208;2024-01-07T04:41:35;102312.47;;;0.75;91.76
29163;BME280;20331;53.144;8.208;2024-01-07T04:46:56;102324.28;;;0.73;91.94
29163;BME280;20331;53.144;8.208;2024-01-07T04:52:18;102322.66;;;0.75;92.51
29163;BME280;20331;53.144;8.208;2024-01-07T04:57:39;102324.28;;;0.73;90.90
29163;BME280;20331;53.144;8.208;2024-01-07T05:03:01;102349.75;;;0.73;90.79
29163;BME280;20331;53.144;8.208;2024-01-07T05:08:23;102359.84;;;0.70;90.38
29163;BME280;20331;53.144;8.208;2024-01-07T05:13:47;102364.94;;;0.70;90.41
29163;BME280;20331;53.144;8.208;2024-01-07T05:19:09;102368.75;;;0.58;89.17
29163;BME280;20331;53.144;8.208;2024-01-07T05:24:30;102388.38;;;0.60;90.02
29163;BME280;20331;53.144;8.208;2024-01-07T05:29:55;102401.81;;;0.56;90.08
29163;BME280;20331;53.144;8.208;2024-01-07T05:35:16;102413.38;;;0.48;89.45
29163;BME280;20331;53.144;8.208;2024-01-07T05:40:38;102421.84;;;0.47;89.24
29163;BME280;20331;53.144;8.208;2024-01-07T05:46:00;102425.19;;;0.46;89.21
29163;BME280;20331;53.144;8.208;2024-01-07T05:51:22;102439.63;;;0.46;90.54
29163;BME280;20331;53.144;8.208;2024-01-07T05:56:44;102443.69;;;0.42;89.45
29163;BME280;20331;53.144;8.208;2024-01-07T06:02:05;102445.44;;;0.43;90.66
29163;BME280;20331;53.144;8.208;2024-01-07T06:07:27;102447.94;;;0.42;90.64
29163;BME280;20331;53.144;8.208;2024-01-07T06:12:49;102463.16;;;0.40;90.48
29163;BME280;20331;53.144;8.208;2024-01-07T06:18:10;102476.69;;;0.39;90.22
29163;BME280;20331;53.144;8.208;2024-01-07T06:23:33;102479.22;;;0.39;90.55
29163;BME280;20331;53.144;8.208;2024-01-07T06:28:54;102493.00;;;0.44;89.72
29163;BME280;20331;53.144;8.208;2024-01-07T06:34:16;102506.00;;;0.52;90.45
29163;BME280;20331;53.144;8.208;2024-01-07T06:39:38;102512.03;;;0.54;89.44
29163;BME280;20331;53.144;8.208;2024-01-07T06:45:00;102506.94;;;0.54;90.41
29163;BME280;20331;53.144;8.208;2024-01-07T06:50:21;102524.13;;;0.59;91.33
29163;BME280;20331;53.144;8.208;2024-01-07T06:55:43;102524.22;;;0.62;91.41
29163;BME280;20331;53.144;8.208;2024-01-07T07:01:07;102526.88;;;0.64;91.03
29163;BME280;20331;53.144;8.208;2024-01-07T07:06:29;102536.16;;;0.63;89.62
29163;BME280;20331;53.144;8.208;2024-01-07T07:11:50;102536.16;;;0.63;90.44
29163;BME280;20331;53.144;8.208;2024-01-07T07:17:13;102549.94;;;0.68;91.33
29163;BME280;20331;53.144;8.208;2024-01-07T07:22:35;102560.13;;;0.68;90.86
29163;BME280;20331;53.144;8.208;2024-01-07T07:27:56;102563.66;;;0.72;89.98
29163;BME280;20331;53.144;8.208;2024-01-07T07:33:18;102568.78;;;0.73;91.56
29163;BME280;20331;53.144;8.208;2024-01-07T07:38:40;102579.91;;;0.75;90.86
29163;BME280;20331;53.144;8.208;2024-01-07T07:44:02;102577.25;;;0.72;90.00
29163;BME280;20331;53.144;8.208;2024-01-07T07:49:24;102587.69;;;0.78;87.69
29163;BME280;20331;53.144;8.208;2024-01-07T07:54:49;102601.50;;;0.85;90.14
29163;BME280;20331;53.144;8.208;2024-01-07T08:00:11;102615.22;;;0.88;89.25
29163;BME280;20331;53.144;8.208;2024-01-07T08:05:36;102624.75;;;0.92;88.62
29163;BME280;20331;53.144;8.208;2024-01-07T08:10:58;102620.47;;;0.91;89.28
29163;BME280;20331;53.144;8.208;2024-01-07T08:16:22;102639.19;;;0.93;88.92
29163;BME280;20331;53.144;8.208;2024-01-07T08:21:44;102647.97;;;1.00;90.38
29163;BME280;20331;53.144;8.208;2024-01-07T08:27:05;102648.84;;;1.00;89.70
29163;BME280;20331;53.144;8.208;2024-01-07T08:32:27;102656.50;;;1.00;90.43
29163;BME280;20331;53.144;8.208;2024-01-07T08:37:48;102668.25;;;0.97;89.46
29163;BME280;20331;53.144;8.208;2024-01-07T08:43:11;102674.38;;;1.02;90.11
29163;BME280;20331;53.144;8.208;2024-01-07T08:48:32;102681.38;;;1.08;90.29
29163;BME280;20331;53.144;8.208;2024-01-07T08:53:55;102678.94;;;1.11;91.46
29163;BME280;20331;53.144;8.208;2024-01-07T08:59:21;102680.56;;;1.09;89.61
29163;BME280;20331;53.144;8.208;2024-01-07T09:04:45;102695.28;;;1.16;89.48
29163;BME280;20331;53.144;8.208;2024-01-07T09:10:07;102703.06;;;1.19;90.37
29163;BME280;20331;53.144;8.208;2024-01-07T09:15:32;102705.47;;;1.16;89.72
29163;BME280;20331;53.144;8.208;2024-01-07T09:20:54;102697.59;;;1.10;89.17
29163;BME280;20331;53.144;8.208;2024-01-07T09:26:16;102704.44;;;1.11;91.37
29163;BME280;20331;53.144;8.208;2024-01-07T09:31:37;102713.00;;;1.13;91.29
29163;BME280;20331;53.144;8.208;2024-01-07T09:36:59;102711.38;;;1.15;91.85
29163;BME280;20331;53.144;8.208;2024-01-07T09:42:21;102724.06;;;1.13;93.58
29163;BME280;20331;53.144;8.208;2024-01-07T09:47:44;102731.53;;;1.09;94.67
29163;BME280;20331;53.144;8.208;2024-01-07T09:53:07;102736.53;;;1.06;94.60
29163;BME280;20331;53.144;8.208;2024-01-07T09:58:28;102745.09;;;1.08;95.00
29163;BME280;20331;53.144;8.208;2024-01-07T10:03:50;102755.16;;;1.04;95.22
29163;BME280;20331;53.144;8.208;2024-01-07T10:09:12;102758.78;;;1.10;96.73
29163;BME280;20331;53.144;8.208;2024-01-07T10:14:35;102745.09;;;1.08;96.66
29163;BME280;20331;53.144;8.208;2024-01-07T10:19:56;102746.47;;;0.99;95.83
29163;BME280;20331;53.144;8.208;2024-01-07T10:25:19;102738.03;;;1.00;96.31
29163;BME280;20331;53.144;8.208;2024-01-07T10:30:41;102754.94;;;0.98;96.44
29163;BME280;20331;53.144;8.208;2024-01-07T10:36:10;102761.50;;;0.93;95.83
29163;BME280;20331;53.144;8.208;2024-01-07T10:41:33;102757.28;;;0.94;96.37
29163;BME280;20331;53.144;8.208;2024-01-07T10:46:59;102762.44;;;0.95;96.45
29163;BME280;20331;53.144;8.208;2024-01-07T10:52:21;102762.63;;;1.00;96.84
29163;BME280;20331;53.144;8.208;2024-01-07T10:57:46;102770.22;;;0.98;95.63
29163;BME280;20331;53.144;8.208;2024-01-07T11:08:41;102764.13;;;0.95;95.63
29163;BME280;20331;53.144;8.208;2024-01-07T11:14:04;102761.63;;;0.96;95.33
29163;BME280;20331;53.144;8.208;2024-01-07T11:19:26;102768.41;;;0.96;95.08
29163;BME280;20331;53.144;8.208;2024-01-07T11:24:48;102759.16;;;0.98;95.20
29163;BME280;20331;53.144;8.208;2024-01-07T11:30:19;102768.47;;;0.97;94.46
29163;BME280;20331;53.144;8.208;2024-01-07T11:35:57;102770.22;;;0.98;94.99
29163;BME280;20331;53.144;8.208;2024-01-07T11:41:21;102785.50;;;0.98;95.29
29163;BME280;20331;53.144;8.208;2024-01-07T11:46:43;102775.53;;;1.04;95.63
29163;BME280;20331;53.144;8.208;2024-01-07T11:52:06;102782.19;;;1.01;95.08
29163;BME280;20331;53.144;8.208;2024-01-07T11:57:28;102799.28;;;1.03;94.89
29163;BME280;20331;53.144;8.208;2024-01-07T12:02:49;102792.59;;;1.06;94.00
29163;BME280;20331;53.144;8.208;2024-01-07T12:08:11;102795.13;;;1.06;95.06
29163;BME280;20331;53.144;8.208;2024-01-07T12:13:33;102791.66;;;1.03;93.54
29163;BME280;20331;53.144;8.208;2024-01-07T12:18:55;102794.31;;;1.07;94.50
29163;BME280;20331;53.144;8.208;2024-01-07T12:24:17;102786.66;;;1.07;93.88
29163;BME280;20331;53.144;8.208;2024-01-07T12:29:38;102792.75;;;1.10;93.28
29163;BME280;20331;53.144;8.208;2024-01-07T12:35:01;102793.88;;;1.17;93.67
29163;BME280;20331;53.144;8.208;2024-01-07T12:40:23;102800.59;;;1.15;93.32
29163;BME280;20331;53.144;8.208;2024-01-07T12:45:49;102802.88;;;1.09;93.91
29163;BME280;20331;53.144;8.208;2024-01-07T12:51:11;102792.69;;;1.09;93.65
29163;BME280;20331;53.144;8.208;2024-01-07T12:56:33;102812.97;;;1.06;93.16
29163;BME280;20331;53.144;8.208;2024-01-07T13:01:55;102800.91;;;1.01;93.34
29163;BME280;20331;53.144;8.208;2024-01-07T13:07:17;102798.19;;;0.97;93.01
29163;BME280;20331;53.144;8.208;2024-01-07T13:12:39;102803.16;;;0.94;92.24
29163;BME280;20331;53.144;8.208;2024-01-07T13:18:11;102807.25;;;0.90;91.62
29163;BME280;20331;53.144;8.208;2024-01-07T13:23:35;102810.78;;;0.94;93.16
29163;BME280;20331;53.144;8.208;2024-01-07T13:28:57;102818.63;;;0.98;94.17
29163;BME280;20331;53.144;8.208;2024-01-07T13:34:20;102824.53;;;0.97;92.01
29163;BME280;20331;53.144;8.208;2024-01-07T13:39:42;102832.84;;;0.93;92.22
29163;BME280;20331;53.144;8.208;2024-01-07T13:45:05;102836.31;;;0.95;92.26
29163;BME280;20331;53.144;8.208;2024-01-07T13:50:27;102832.84;;;0.93;92.45
29163;BME280;20331;53.144;8.208;2024-01-07T13:55:48;102839.56;;;0.91;91.83
29163;BME280;20331;53.144;8.208;2024-01-07T14:01:10;102848.00;;;0.90;91.04
29163;BME280;20331;53.144;8.208;2024-01-07T14:06:32;102843.53;;;0.85;91.09
29163;BME280;20331;53.144;8.208;2024-01-07T14:11:54;102848.50;;;0.82;91.29
29163;BME280;20331;53.144;8.208;2024-01-07T14:17:16;102851.00;;;0.80;90.93
29163;BME280;20331;53.144;8.208;2024-01-07T14:22:38;102856.09;;;0.80;92.33
29163;BME280;20331;53.144;8.208;2024-01-07T14:28:00;102862.53;;;0.72;91.30
29163;BME280;20331;53.144;8.208;2024-01-07T14:33:21;102876.94;;;0.72;90.92
29163;BME280;20331;53.144;8.208;2024-01-07T14:38:44;102870.84;;;0.68;89.98
29163;BME280;20331;53.144;8.208;2024-01-07T14:44:07;102887.72;;;0.66;90.36
29163;BME280;20331;53.144;8.208;2024-01-07T14:49:33;102890.94;;;0.62;89.48
29163;BME280;20331;53.144;8.208;2024-01-07T14:54:54;102910.25;;;0.57;89.01
29163;BME280;20331;53.144;8.208;2024-01-07T15:00:18;102904.09;;;0.52;87.77
29163;BME280;20331;53.144;8.208;2024-01-07T15:05:39;102902.97;;;0.46;87.91
29163;BME280;20331;53.144;8.208;2024-01-07T15:11:02;102910.50;;;0.44;88.79
29163;BME280;20331;53.144;8.208;2024-01-07T15:16:25;102903.69;;;0.43;89.66
29163;BME280;20331;53.144;8.208;2024-01-07T15:21:47;102910.91;;;0.34;89.09
29163;BME280;20331;53.144;8.208;2024-01-07T15:27:12;102914.84;;;0.28;88.86
29163;BME280;20331;53.144;8.208;2024-01-07T15:32:33;102926.72;;;0.27;90.42
29163;BME280;20331;53.144;8.208;2024-01-07T15:37:55;102933.94;;;0.18;89.35
29163;BME280;20331;53.144;8.208;2024-01-07T15:43:18;102934.31;;;0.08;88.80
29163;BME280;20331;53.144;8.208;2024-01-07T15:48:41;102946.06;;;0.06;89.22
29163;BME280;20331;53.144;8.208;2024-01-07T15:54:04;102954.22;;;-0.01;86.72
29163;BME280;20331;53.144;8.208;2024-01-07T15:59:27;102963.97;;;-0.10;86.23
29163;BME280;20331;53.144;8.208;2024-01-07T16:04:49;102962.06;;;-0.14;87.03
29163;BME280;20331;53.144;8.208;2024-01-07T16:10:11;102970.66;;;-0.12;87.38
29163;BME280;20331;53.144;8.208;2024-01-07T16:15:33;102975.59;;;-0.15;85.97
29163;BME280;20331;53.144;8.208;2024-01-07T16:20:55;102978.78;;;-0.19;87.29
29163;BME280;20331;53.144;8.208;2024-01-07T16:26:17;102989.75;;;-0.20;87.69
29163;BME280;20331;53.144;8.208;2024-01-07T16:31:38;102989.59;;;-0.23;88.83
29163;BME280;20331;53.144;8.208;2024-01-07T16:37:01;103005.38;;;-0.30;87.29
29163;BME280;20331;53.144;8.208;2024-01-07T16:42:23;103001.81;;;-0.34;88.01
29163;BME280;20331;53.144;8.208;2024-01-07T16:47:45;103006.66;;;-0.38;88.50
29163;BME280;20331;53.144;8.208;2024-01-07T16:53:06;103021.78;;;-0.41;88.57
29163;BME280;20331;53.144;8.208;2024-01-07T16:58:28;103014.63;;;-0.48;88.38
29163;BME280;20331;53.144;8.208;2024-01-07T17:03:50;103027.03;;;-0.54;88.65
29163;BME280;20331;53.144;8.208;2024-01-07T17:09:11;103031.72;;;-0.62;88.08
29163;BME280;20331;53.144;8.208;2024-01-07T17:14:33;103031.91;;;-0.59;88.60
29163;BME280;20331;53.144;8.208;2024-01-07T17:19:55;103041.34;;;-0.56;89.30
29163;BME280;20331;53.144;8.208;2024-01-07T17:25:17;103031.09;;;-0.58;89.78
29163;BME280;20331;53.144;8.208;2024-01-07T17:30:38;103052.25;;;-0.59;88.91
29163;BME280;20331;53.144;8.208;2024-01-07T17:36:00;103049.78;;;-0.57;89.97
29163;BME280;20331;53.144;8.208;2024-01-07T17:41:22;103048.81;;;-0.59;88.32
29163;BME280;20331;53.144;8.208;2024-01-07T17:46:44;103049.78;;;-0.57;88.58
29163;BME280;20331;53.144;8.208;2024-01-07T17:52:05;103060.22;;;-0.51;88.59
29163;BME280;20331;53.144;8.208;2024-01-07T17:57:27;103063.91;;;-0.46;88.44
29163;BME280;20331;53.144;8.208;2024-01-07T18:02:51;103055.63;;;-0.42;88.79
29163;BME280;20331;53.144;8.208;2024-01-07T18:08:13;103073.50;;;-0.41;86.95
29163;BME280;20331;53.144;8.208;2024-01-07T18:13:41;103079.63;;;-0.37;87.76
29163;BME280;20331;53.144;8.208;2024-01-07T18:19:03;103077.00;;;-0.39;88.32
29163;BME280;20331;53.144;8.208;2024-01-07T18:24:24;103077.00;;;-0.39;86.79
29163;BME280;20331;53.144;8.208;2024-01-07T18:29:46;103078.50;;;-0.42;87.20
29163;BME280;20331;53.144;8.208;2024-01-07T18:35:08;103086.28;;;-0.39;87.15
29163;BME280;20331;53.144;8.208;2024-01-07T18:40:30;103086.16;;;-0.42;86.06
29163;BME280;20331;53.144;8.208;2024-01-07T18:45:52;103100.50;;;-0.43;84.70
29163;BME280;20331;53.144;8.208;2024-01-07T18:51:13;103091.22;;;-0.42;85.92
29163;BME280;20331;53.144;8.208;2024-01-07T18:56:35;103096.13;;;-0.45;84.89
29163;BME280;20331;53.144;8.208;2024-01-07T19:01:57;103101.16;;;-0.47;84.34
29163;BME280;20331;53.144;8.208;2024-01-07T19:07:21;103113.16;;;-0.44;85.73
29163;BME280;20331;53.144;8.208;2024-01-07T19:12:42;103120.59;;;-0.47;84.75
29163;BME280;20331;53.144;8.208;2024-01-07T19:18:04;103128.22;;;-0.47;85.49
29163;BME280;20331;53.144;8.208;2024-01-07T19:23:26;103129.09;;;-0.47;86.12
29163;BME280;20331;53.144;8.208;2024-01-07T19:28:48;103130.78;;;-0.47;86.75
29163;BME280;20331;53.144;8.208;2024-01-07T19:34:09;103119.66;;;-0.49;84.80
29163;BME280;20331;53.144;8.208;2024-01-07T19:39:31;103126.03;;;-0.57;83.86
29163;BME280;20331;53.144;8.208;2024-01-07T19:45:13;103138.88;;;-0.54;85.04
29163;BME280;20331;53.144;8.208;2024-01-07T19:50:35;103145.72;;;-0.53;84.09
29163;BME280;20331;53.144;8.208;2024-01-07T19:55:57;103149.78;;;-0.57;84.72
29163;BME280;20331;53.144;8.208;2024-01-07T20:01:23;103151.25;;;-0.60;83.94
29163;BME280;20331;53.144;8.208;2024-01-07T20:06:45;103158.03;;;-0.61;84.59
29163;BME280;20331;53.144;8.208;2024-01-07T20:12:06;103164.63;;;-0.64;84.02
29163;BME280;20331;53.144;8.208;2024-01-07T20:17:28;103159.91;;;-0.73;81.89
29163;BME280;20331;53.144;8.208;2024-01-07T20:22:50;103162.53;;;-0.71;85.14
29163;BME280;20331;53.144;8.208;2024-01-07T20:28:12;103157.44;;;-0.71;84.56
29163;BME280;20331;53.144;8.208;2024-01-07T20:33:36;103150.28;;;-0.78;83.58
29163;BME280;20331;53.144;8.208;2024-01-07T20:38:58;103156.97;;;-0.80;83.55
29163;BME280;20331;53.144;8.208;2024-01-07T20:44:20;103162.03;;;-0.80;84.36
29163;BME280;20331;53.144;8.208;2024-01-07T20:49:42;103165.38;;;-0.81;83.48
29163;BME280;20331;53.144;8.208;2024-01-07T20:55:04;103166.28;;;-0.81;84.11
29163;BME280;20331;53.144;8.208;2024-01-07T21:00:25;103171.91;;;-0.86;82.02
29163;BME280;20331;53.144;8.208;2024-01-07T21:05:47;103166.63;;;-0.89;82.31
29163;BME280;20331;53.144;8.208;2024-01-07T21:11:35;103176.63;;;-0.92;82.51
29163;BME280;20331;53.144;8.208;2024-01-07T21:16:57;103172.97;;;-0.97;81.32
29163;BME280;20331;53.144;8.208;2024-01-07T21:22:21;103177.25;;;-0.96;80.96
29163;BME280;20331;53.144;8.208;2024-01-07T21:27:44;103183.13;;;-0.97;81.61
29163;BME280;20331;53.144;8.208;2024-01-07T21:33:05;103191.53;;;-0.98;81.73
29163;BME280;20331;53.144;8.208;2024-01-07T21:38:27;103193.03;;;-1.02;81.51
29163;BME280;20331;53.144;8.208;2024-01-07T21:43:49;103190.25;;;-1.07;82.89
29163;BME280;20331;53.144;8.208;2024-01-07T21:49:12;103202.00;;;-1.09;82.97
29163;BME280;20331;53.144;8.208;2024-01-07T21:54:36;103202.22;;;-1.04;83.75
29163;BME280;20331;53.144;8.208;2024-01-07T21:59:57;103211.44;;;-1.06;83.71
29163;BME280;20331;53.144;8.208;2024-01-07T22:05:19;103211.44;;;-1.06;84.79
29163;BME280;20331;53.144;8.208;2024-01-07T22:10:41;103227.41;;;-1.09;83.21
29163;BME280;20331;53.144;8.208;2024-01-07T22:16:08;103215.38;;;-1.11;83.08
29163;BME280;20331;53.144;8.208;2024-01-07T22:21:30;103229.22;;;-1.06;83.65
29163;BME280;20331;53.144;8.208;2024-01-07T22:26:52;103228.88;;;-0.97;83.91
29163;BME280;20331;53.144;8.208;2024-01-07T22:32:14;103225.72;;;-0.93;83.95
29163;BME280;20331;53.144;8.208;2024-01-07T22:37:36;103229.19;;;-0.91;84.14
29163;BME280;20331;53.144;8.208;2024-01-07T22:42:58;103230.25;;;-0.88;84.16
29163;BME280;20331;53.144;8.208;2024-01-07T22:48:20;103228.81;;;-0.83;84.83
29163;BME280;20331;53.144;8.208;2024-01-07T22:53:42;103231.28;;;-0.84;84.18
29163;BME280;20331;53.144;8.208;2024-01-07T22:59:06;103221.75;;;-0.88;84.15
29163;BME280;20331;53.144;8.208;2024-01-07T23:04:27;103233.66;;;-0.87;83.57
29163;BME280;20331;53.144;8.208;2024-01-07T23:09:49;103231.28;;;-0.84;85.40
29163;BME280;20331;53.144;8.208;2024-01-07T23:15:11;103235.91;;;-0.77;85.25
29163;BME280;20331;53.144;8.208;2024-01-07T23:20:32;103237.03;;;-0.72;85.04
29163;BME280;20331;53.144;8.208;2024-01-07T23:25:56;103230.53;;;-0.67;85.79
29163;BME280;20331;53.144;8.208;2024-01-07T23:31:17;103226.59;;;-0.62;86.94
29163;BME280;20331;53.144;8.208;2024-01-07T23:36:39;103225.16;;;-0.57;87.60
29163;BME280;20331;53.144;8.208;2024-01-07T23:42:01;103224.19;;;-0.59;87.54
29163;BME280;20331;53.144;8.208;2024-01-07T23:47:23;103232.59;;;-0.60;87.79
29163;BME280;20331;53.144;8.208;2024-01-07T23:52:45;103239.44;;;-0.59;88.23
29163;BME280;20331;53.144;8.208;2024-01-07T23:58:07;103239.44;;;-0.59;87.92
